• Join FlightAware (Why Join?)
  • Login
  • US Flag 
01:46AM EDT


 

Airport Tracker/Info


-or-


 

Live Flight TrackerFlight Track Log ✈ SWA1910 ✈ 07-Apr-2013 ✈ KBWI - KRSW

Flight Track Log - Related Links

Times and Time Zones

All times are in EDT time to prevent confusion due to time zone crossing. See the SWA1910 flight status page for this flight to view local times or setup timezone preferences in your user account.

Time Position Orientation Groundspeed Altitude Reporting Facility
EDT Latitude Longitude Course Direction KTS MPH feet Rate Location/Type
07:33PM 39.1333 -76.6333 180° South 192 221 3,300  Level Potomac TRACON
07:34PM 39.1000 -76.5833 131° Southeast 213 245 5,800 3,060 Climbing Potomac TRACON
07:35PM 39.0333 -76.5167 142° Southeast 276 318 9,500 3,360 Climbing Potomac TRACON
07:36PM 38.9500 -76.4833 163° South 339 390 12,900 2,280 Climbing Potomac TRACON
07:37PM 38.8500 -76.4833 180° South 344 396 14,100 600 Climbing Potomac TRACON
07:38PM 38.7833 -76.5500 218° Southwest 325 374 14,100 900 Level Potomac TRACON
07:39PM 38.5871 -76.9438 180° South  Level Estimated
07:39PM 38.7000 -76.6167 212° Southwest 327 376 15,900  Level Potomac TRACON
07:40PM 38.6228 -76.6786 212° Southwest 351 404 18,700 1,560 Climbing Washington Center
07:41PM 38.5347 -76.7250 202° Southwest 357 411 19,000 900 Climbing Washington Center
07:42PM 38.4308 -76.7103 174° South 350 403 20,600 2,040 Climbing Washington Center
07:43PM 38.3203 -76.6928 173° South 368 423 23,100 2,460 Climbing Washington Center
07:44PM 38.2161 -76.6806 175° South 396 456 25,600 1,620 Climbing Washington Center
07:45PM 38.0975 -76.6631 173° South 416 479 26,400 1,680 Climbing Washington Center
07:46PM 37.9808 -76.6481 174° South 424 488 29,000 1,980 Climbing Washington Center
07:47PM 37.8558 -76.6306 174° South 434 499 30,400 2,040 Climbing Washington Center
07:48PM 37.7289 -76.6131 174° South 448 516 33,100 1,800 Climbing Washington Center
07:49PM 37.6039 -76.5983 175° South 453 521 34,000 420 Climbing Washington Center
07:50PM 37.4789 -76.5836 175° South 458 527 34,000 960 Level Washington Center
07:51PM 37.3639 -76.6108 191° South 437 503 36,000 2,100 Climbing Washington Center
07:52PM 37.2550 -76.6511 196° South 424 488 38,200 1,680 Climbing Washington Center
07:53PM 37.1483 -76.6942 198° South 413 475 39,400 900 Climbing Washington Center
07:54PM 37.0372 -76.7367 197° South 413 475 40,000 300 Climbing Washington Center
07:55PM 36.9283 -76.7767 196° South 413 475 40,000  Level Washington Center
07:56PM 36.8217 -76.8167 197° South 413 475 40,000  Level Washington Center
07:57PM 36.7106 -76.8589 197° South 413 475 40,000  Level Washington Center
07:58PM 36.5997 -76.8986 196° South 418 481 40,000  Level Washington Center
07:59PM 36.4886 -76.9381 196° South 418 481 40,000  Level Washington Center
08:00PM 36.3692 -76.9850 198° South 418 481 40,000  Level Washington Center
08:01PM 36.2603 -77.0242 196° South 418 481 40,000  Level Washington Center
08:02PM 36.1492 -77.0633 196° South 418 481 40,000  Level Washington Center
08:03PM 36.0400 -77.1050 197° South 418 481 40,000  Level Washington Center
08:04PM 35.9436 -77.1392 196° South 418 481 40,000  Level Washington Center
08:05PM 35.8222 -77.1828 196° South 418 481 40,000  Level Washington Center
08:06PM 35.7111 -77.2189 195° South 418 481 40,000  Level Washington Center
08:07PM 35.5978 -77.2600 196° South 418 481 40,000  Level Washington Center
08:08PM 35.4867 -77.2986 196° South 418 481 40,000  Level Washington Center
08:09PM 35.3733 -77.3369 195° South 418 481 40,000  Level Washington Center
08:10PM 35.2644 -77.3778 197° South 418 481 40,000  Level Washington Center
08:11PM 35.1553 -77.4136 195° South 418 481 40,000  Level Washington Center
08:12PM 35.0461 -77.4542 197° South 418 481 40,000  Level Washington Center
08:13PM 34.9372 -77.4897 195° South 418 481 40,000  Level Washington Center
08:14PM 34.8258 -77.5300 197° South 418 481 40,000  Level Washington Center
08:15PM 34.7292 -77.5683 198° South 418 481 40,000  Level Washington Center
08:16PM 34.6222 -77.6061 196° South 413 475 40,000  Level Washington Center
08:17PM 34.5153 -77.6436 196° South 413 475 40,000  Level Washington Center
08:18PM 34.4039 -77.6811 196° South 413 475 40,000  Level Washington Center
08:19PM 34.2969 -77.7189 196° South 413 475 40,000  Level Washington Center
08:20PM 34.1711 -77.7581 194° South 419 482 40,000  Level Washington Center
08:22PM 34.0197 -77.8092 196° South 404 465 40,000  Level Jacksonville Center
08:23PM 33.9089 -77.8506 197° South 409 471 40,000  Level Jacksonville Center
08:24PM 33.7956 -77.8872 195° South 415 478 40,000  Level Jacksonville Center
08:25PM 33.6864 -77.9258 196° South 415 478 40,000  Level Jacksonville Center
08:26PM 33.5794 -77.9617 196° South 415 478 40,000  Level Jacksonville Center
08:27PM 33.4703 -77.9978 195° South 415 478 40,000  Level Jacksonville Center
08:28PM 33.3611 -78.0358 196° South 415 478 40,000  Level Jacksonville Center
08:29PM 33.2539 -78.0717 196° South 415 478 40,000  Level Jacksonville Center
08:30PM 33.1447 -78.1072 195° South 415 478 40,000  Level Jacksonville Center
08:31PM 33.0375 -78.1428 196° South 415 478 40,000  Level Jacksonville Center
08:32PM 32.9283 -78.1806 196° South 410 472 40,000  Level Jacksonville Center
08:33PM 32.8211 -78.2158 195° South 410 472 40,000  Level Jacksonville Center
08:34PM 32.7119 -78.2511 195° South 410 472 40,000  Level Jacksonville Center
08:35PM 32.6025 -78.2864 195° South 415 478 40,000  Level Jacksonville Center
08:36PM 32.4933 -78.3239 196° South 415 478 40,000  Level Jacksonville Center
08:37PM 32.3858 -78.3589 195° South 415 478 40,000  Level Jacksonville Center
08:38PM 32.2664 -78.4017 197° South 410 472 40,000  Level Jacksonville Center
08:39PM 32.1550 -78.4367 195° South 410 472 40,000  Level Jacksonville Center
08:40PM 32.0478 -78.4736 196° South 415 478 40,000  Level Jacksonville Center
08:41PM 31.9403 -78.5058 194° South 415 478 40,000  Level Jacksonville Center
08:42PM 31.8331 -78.5425 196° South 409 471 40,000  Level Jacksonville Center
08:43PM 31.7236 -78.5769 195° South 412 474 40,000  Level Jacksonville Center
08:44PM 31.6161 -78.6136 196° South 407 468 40,000  Level Jacksonville Center
08:45PM 31.5069 -78.6506 196° South 407 468 40,000  Level Jacksonville Center
08:46PM 31.3994 -78.6844 195° South 407 468 40,000  Level Jacksonville Center
08:47PM 31.2900 -78.7186 195° South 407 468 40,000  Level Jacksonville Center
08:48PM 31.1806 -78.7550 196° South 406 467 40,000  Level Jacksonville Center
08:49PM 31.0731 -78.7864 194° South 401 461 40,000  Level Jacksonville Center
08:50PM 30.9678 -78.8250 197° South 414 476 40,000  Level Jacksonville Center
08:51PM 30.7975 -78.8783 195° South 399 459 40,000  Level Miami Center
08:52PM 30.6886 -78.9147 196° South 404 465 40,000  Level Miami Center
08:53PM 30.5778 -78.9464 194° South 413 475 40,000  Level Miami Center
08:54PM 30.4750 -78.9803 196° South 413 475 40,000  Level Miami Center
08:55PM 30.3681 -79.0192 197° South 408 470 40,000  Level Miami Center
08:56PM 30.2633 -79.0650 201° Southwest 401 461 40,000  Level Miami Center
08:57PM 30.1583 -79.1108 201° Southwest 406 467 40,000  Level Miami Center
08:58PM 30.0575 -79.1567 201° Southwest 401 461 40,000  Level Miami Center
08:59PM 29.9689 -79.2289 215° Southwest 388 447 40,000  Level Miami Center
09:00PM 29.8800 -79.2989 214° Southwest 393 452 40,000  Level Miami Center
09:01PM 29.7831 -79.3564 207° Southwest 398 458 40,000  Level Miami Center
09:02PM 29.6983 -79.4333 218° Southwest 398 458 40,000  Level Miami Center
09:03PM 29.6056 -79.4956 210° Southwest 398 458 40,000  Level Miami Center
09:04PM 29.5167 -79.5647 214° Southwest 398 458 40,000  Level Miami Center
09:05PM 29.4256 -79.6292 212° Southwest 398 458 40,000  Level Miami Center
09:06PM 29.3367 -79.6961 213° Southwest 398 458 40,000  Level Miami Center
09:07PM 29.2458 -79.7603 212° Southwest 393 452 40,000  Level Miami Center
09:08PM 29.1547 -79.8267 212° Southwest 393 452 40,000 -360 Level Miami Center
09:09PM 29.0656 -79.8933 213° Southwest 393 452 39,300 -1,800 Descending Miami Center
09:10PM 28.9747 -79.9572 212° Southwest 393 452 36,500 -2,700 Descending Miami Center
09:11PM 28.8833 -80.0258 213° Southwest 393 452 33,900 -2,460 Descending Miami Center
09:12PM 28.7944 -80.0894 212° Southwest 393 452 31,600 -2,280 Descending Miami Center
09:13PM 28.7094 -80.1533 213° Southwest 388 447 29,400 -2,220 Descending Miami Center
09:14PM 28.6267 -80.2100 211° Southwest 369 425 27,200 -2,160 Descending Miami Center
09:15PM 28.5461 -80.2714 214° Southwest 358 412 25,100 -1,620 Descending Miami Center
09:16PM 28.4772 -80.3542 227° Southwest 346 398 24,000 -900 Descending Miami Center
09:17PM 28.4353 -80.4522 244° Southwest 335 386 23,300 -840 Descending Miami Center
09:18PM 28.3972 -80.5475 246° West 340 391 22,400 -960 Descending Miami Center
09:19PM 28.3594 -80.6361 244° Southwest 340 391 21,400 -1,020 Descending Miami Center
09:20PM 28.3236 -80.7314 247° West 340 391 20,400 -720 Descending Miami Center
09:21PM 28.2856 -80.8222 245° Southwest 328 377 20,000 -240 Descending Miami Center
09:22PM 28.2494 -80.9175 247° West 333 383 20,000  Level Miami Center
09:23PM 28.2033 -81.0053 239° Southwest 333 383 20,000  Level Miami Center
09:24PM 28.1144 -81.0419 200° South 327 376 20,000  Level Miami Center
09:25PM 28.0258 -81.0764 199° South 326 375 20,000  Level Miami Center
09:26PM 27.9392 -81.1131 200° South 331 381 20,000  Level Miami Center
09:27PM 27.8419 -81.1517 199° South 331 381 20,000  Level Miami Center
09:28PM 27.7511 -81.1881 200° South 341 392 20,000  Level Miami Center
09:29PM 27.6625 -81.2222 199° South 341 392 20,000  Level Miami Center
09:30PM 27.5739 -81.2589 200° South 341 392 20,000  Level Miami Center
09:31PM 27.4828 -81.2950 199° South 341 392 20,000 -540 Level Miami Center
09:32PM 27.3964 -81.3292 199° South 341 392 19,000 -1,320 Descending Miami Center
09:33PM 27.3117 -81.3608 198° South 331 381 17,400 -1,920 Descending Miami Center
09:34PM 27.2336 -81.3928 200° South 331 381 15,200 -2,160 Descending Miami Center
09:35PM 27.1511 -81.4292 201° Southwest 331 381 13,100 -2,100 Descending Miami Center
09:36PM 27.0664 -81.4611 199° South 331 381 11,100 -1,560 Descending Miami Center
09:37PM 26.9744 -81.4667 183° South 308 354 10,000 -600 Descending Miami Center
09:38PM 26.9047 -81.4267 153° Southeast 303 349 10,000  Level Miami Center
09:39PM 26.8286 -81.3911 157° South 308 354 10,000  Level Miami Center
09:40PM 26.7347 -81.3922 181° South 295 339 10,000  Level Miami Center
09:41PM 26.6547 -81.4144 194° South 301 346 10,000  Level Miami Center
09:42PM 26.6042 -81.4939 235° Southwest 295 339 10,000  Level Miami Center
09:44PM 26.5672 -81.6363 197° South  Level Estimated
09:51PM 26.5333 -81.7500 318° Northwest  Level FlightAware Approximate
09:52PM 26.5362 -81.7552 318° Northwest  Level Estimated
09:53PM 26.5333 -81.7500 318° Northwest  Level FlightAware Approximate
09:54PM 26.5362 -81.7552 318° Northwest  Level Estimated
09:55PM 26.5333 -81.7500 318° Northwest  Level FlightAware Approximate
09:56PM 26.5362 -81.7552 318° Northwest  Level Estimated
09:57PM 26.5333 -81.7500 318° Northwest  Level FlightAware Approximate
09:58PM 26.5362 -81.7552 318° Northwest  Level Estimated
09:59PM 26.5333 -81.7500 318° Northwest  Level FlightAware Approximate
10:00PM 26.5362 -81.7552 318° Northwest  Level Estimated
10:01PM 26.5333 -81.7500 318° Northwest  Level FlightAware Approximate
10:02PM 26.5362 -81.7552 318° Northwest  Level Estimated